createdAt,value
2022-12-04T00:04:09.848Z,7.75
2022-12-04T00:09:12.136Z,7.03
2022-12-04T00:14:15.436Z,7.18
2022-12-04T00:19:18.078Z,7.39
2022-12-04T00:24:19.852Z,7.31
2022-12-04T00:29:23.021Z,7.29
2022-12-04T00:34:24.829Z,7.01
2022-12-04T00:39:26.579Z,6.66
2022-12-04T00:44:30.253Z,6.74
2022-12-04T00:49:32.629Z,7.57
2022-12-04T00:54:34.594Z,7.60
2022-12-04T00:59:38.302Z,7.32
2022-12-04T01:04:40.038Z,7.46
2022-12-04T01:09:41.789Z,7.46
2022-12-04T01:14:45.098Z,7.53
2022-12-04T01:19:46.995Z,7.42
2022-12-04T01:24:48.829Z,7.51
2022-12-04T01:29:52.100Z,7.42
2022-12-04T01:34:53.999Z,7.72
2022-12-04T01:39:56.289Z,7.83
2022-12-04T01:45:32.156Z,7.61
2022-12-04T01:50:33.959Z,7.67
2022-12-04T01:55:35.711Z,7.80
2022-12-04T02:00:38.789Z,7.90
2022-12-04T02:05:40.562Z,8.11
2022-12-04T02:10:46.664Z,8.15
2022-12-04T02:15:52.987Z,8.28
2022-12-04T02:20:57.488Z,7.95
2022-12-04T02:26:01.522Z,7.81
2022-12-04T02:31:04.911Z,7.92
2022-12-04T02:36:07.970Z,8.03
2022-12-04T02:41:11.598Z,8.06
2022-12-04T02:46:17.330Z,8.18
2022-12-04T02:51:20.208Z,8.22
2022-12-04T02:56:23.490Z,8.13
2022-12-04T03:01:28.135Z,8.19
2022-12-04T03:06:31.210Z,8.18
2022-12-04T03:11:34.089Z,8.13
2022-12-04T03:16:38.784Z,8.15
2022-12-04T03:21:41.770Z,8.22
2022-12-04T03:26:45.621Z,8.30
2022-12-04T03:31:50.000Z,8.35
2022-12-04T03:36:53.170Z,8.22
2022-12-04T03:41:57.223Z,8.40
2022-12-04T03:47:02.928Z,8.42
2022-12-04T03:52:06.898Z,8.27
2022-12-04T03:57:11.019Z,8.25
2022-12-04T04:02:15.254Z,8.44
2022-12-04T04:07:20.065Z,8.43
2022-12-04T04:12:23.156Z,8.27
2022-12-04T04:18:07.514Z,8.15
2022-12-04T04:23:28.100Z,8.36
2022-12-04T04:28:31.062Z,8.43
2022-12-04T04:33:34.716Z,8.48
2022-12-04T04:38:38.956Z,8.51
2022-12-04T04:43:43.906Z,8.59
2022-12-04T04:48:48.915Z,8.59
2022-12-04T04:53:51.722Z,8.61
2022-12-04T04:58:53.468Z,8.50
2022-12-04T05:03:56.548Z,8.52
2022-12-04T05:08:58.304Z,8.70
2022-12-04T05:14:00.108Z,8.61
2022-12-04T05:19:21.804Z,8.52
2022-12-04T05:24:23.569Z,8.58
2022-12-04T05:29:25.317Z,8.50
2022-12-04T05:34:28.398Z,8.70
2022-12-04T05:39:30.088Z,8.54
2022-12-04T05:44:31.894Z,8.56
2022-12-04T05:49:35.307Z,8.76
2022-12-04T05:54:37.338Z,8.81
2022-12-04T05:59:39.307Z,8.73
2022-12-04T06:04:42.444Z,8.89
2022-12-04T06:09:44.299Z,8.79
2022-12-04T06:14:46.081Z,8.87
2022-12-04T06:19:49.293Z,9.07
2022-12-04T06:24:51.072Z,9.14
2022-12-04T06:29:52.976Z,9.06
2022-12-04T06:34:56.186Z,8.83
2022-12-04T06:39:58.171Z,8.98
2022-12-04T06:45:00.095Z,9.03
2022-12-04T06:50:03.712Z,9.13
2022-12-04T06:55:06.425Z,9.26
2022-12-04T07:00:09.363Z,9.17
2022-12-04T07:05:12.445Z,9.15
2022-12-04T07:10:14.196Z,8.74
2022-12-04T07:15:15.987Z,9.00
2022-12-04T07:20:19.245Z,9.13
2022-12-04T07:25:21.028Z,9.09
2022-12-04T07:30:23.126Z,9.17
2022-12-04T07:35:26.268Z,9.12
2022-12-04T07:40:28.063Z,8.67
2022-12-04T07:45:29.854Z,8.86
2022-12-04T07:50:32.982Z,8.97
2022-12-04T07:55:34.808Z,8.87
2022-12-04T08:00:36.584Z,8.67
2022-12-04T08:05:39.648Z,8.83
2022-12-04T08:10:41.449Z,8.60
2022-12-04T08:15:43.257Z,8.62
2022-12-04T08:20:46.423Z,8.66
2022-12-04T08:25:48.253Z,8.62
2022-12-04T08:30:49.988Z,8.55
2022-12-04T08:35:53.219Z,8.54
2022-12-04T08:40:54.960Z,8.51
2022-12-04T08:45:57.177Z,8.61
2022-12-04T08:51:00.417Z,8.57
2022-12-04T08:56:02.205Z,8.46
2022-12-04T09:01:05.150Z,8.53
2022-12-04T09:06:08.872Z,8.82
2022-12-04T09:11:12.130Z,9.16
2022-12-04T09:16:15.438Z,9.35
2022-12-04T09:21:19.493Z,9.38
2022-12-04T09:26:22.621Z,9.55
2022-12-04T09:31:24.598Z,9.45
2022-12-04T09:36:27.915Z,9.52
2022-12-04T09:42:08.643Z,9.64
2022-12-04T09:47:13.737Z,9.81
2022-12-04T09:52:24.110Z,9.79
2022-12-04T09:57:28.636Z,9.69
2022-12-04T10:02:34.443Z,9.73
2022-12-04T10:07:42.333Z,9.42
2022-12-04T10:12:49.064Z,9.48
2022-12-04T10:17:58.014Z,8.88
2022-12-04T10:23:08.098Z,9.08
2022-12-04T10:28:19.113Z,8.64
2022-12-04T10:33:32.467Z,8.76
2022-12-04T10:38:39.194Z,8.76
2022-12-04T10:43:42.910Z,8.78
2022-12-04T10:48:45.326Z,8.39
2022-12-04T10:53:51.318Z,8.34
2022-12-04T10:58:57.531Z,8.38
2022-12-04T11:04:02.053Z,8.51
2022-12-04T11:09:05.100Z,8.70
2022-12-04T11:14:08.009Z,8.83
2022-12-04T11:19:21.227Z,8.84
2022-12-04T11:24:33.159Z,8.85
2022-12-04T11:29:36.336Z,8.77
2022-12-04T11:34:39.754Z,8.73
2022-12-04T11:39:42.912Z,8.93
2022-12-04T11:44:50.352Z,9.06
2022-12-04T11:50:01.562Z,9.32
2022-12-04T11:55:08.930Z,9.35
2022-12-04T12:00:12.437Z,9.33
2022-12-04T12:05:39.634Z,9.35
2022-12-04T12:10:45.137Z,9.32
2022-12-04T12:15:50.157Z,9.25
2022-12-04T12:20:56.672Z,9.32
2022-12-04T12:26:03.277Z,9.60
2022-12-04T12:31:13.529Z,9.57
2022-12-04T12:36:15.313Z,9.41
2022-12-04T12:41:19.778Z,9.23
2022-12-04T12:46:24.112Z,9.41
2022-12-04T12:51:30.735Z,9.60
2022-12-04T12:56:38.379Z,9.71
2022-12-04T13:01:44.427Z,9.60
2022-12-04T13:06:47.207Z,9.55
2022-12-04T13:11:50.240Z,9.33
2022-12-04T13:16:53.220Z,9.56
2022-12-04T13:21:59.467Z,9.68
2022-12-04T13:27:05.061Z,9.71
2022-12-04T13:32:14.519Z,9.77
2022-12-04T13:37:38.553Z,9.87
2022-12-04T13:42:42.192Z,9.84
2022-12-04T13:47:43.890Z,9.76
2022-12-04T13:52:47.243Z,9.83
2022-12-04T13:57:54.835Z,9.92
2022-12-04T14:02:57.794Z,10.01
2022-12-04T14:08:07.841Z,9.94
2022-12-04T14:13:17.839Z,9.91
2022-12-04T14:18:25.387Z,10.10
2022-12-04T14:23:33.206Z,10.06
2022-12-04T14:28:42.582Z,10.00
2022-12-04T14:33:45.615Z,10.02
2022-12-04T14:38:47.932Z,10.06
2022-12-04T14:43:52.574Z,10.03
2022-12-04T14:48:56.996Z,9.94
2022-12-04T14:54:01.097Z,9.93
2022-12-04T14:59:06.695Z,9.94
2022-12-04T15:04:13.131Z,10.04
2022-12-04T15:09:35.964Z,9.97
2022-12-04T15:14:42.791Z,10.02
2022-12-04T15:19:44.509Z,10.11
2022-12-04T15:24:46.161Z,9.99
2022-12-04T15:29:51.352Z,10.03
2022-12-04T15:34:54.807Z,10.07
2022-12-04T15:39:56.969Z,10.23
2022-12-04T15:45:02.525Z,10.23
2022-12-04T15:50:09.872Z,10.04
2022-12-04T15:55:12.989Z,9.95
2022-12-04T16:00:24.665Z,10.12
2022-12-04T16:05:34.837Z,10.17
2022-12-04T16:10:37.875Z,10.10
2022-12-04T16:15:41.924Z,9.92
2022-12-04T16:20:43.730Z,9.70
2022-12-04T16:25:45.793Z,9.69
2022-12-04T16:30:50.168Z,9.57
2022-12-04T16:35:51.962Z,9.73
2022-12-04T16:40:53.693Z,9.89
2022-12-04T16:46:00.264Z,9.97
2022-12-04T16:51:02.006Z,10.02
2022-12-04T16:56:04.068Z,10.15
2022-12-04T17:01:13.782Z,10.15
2022-12-04T17:06:15.579Z,10.15
2022-12-04T17:11:17.607Z,10.06
2022-12-04T17:16:20.858Z,10.22
2022-12-04T17:21:22.709Z,10.20
2022-12-04T17:26:24.638Z,10.10
2022-12-04T17:31:27.945Z,10.27
2022-12-04T17:36:30.205Z,10.54
2022-12-04T17:41:31.987Z,10.47
2022-12-04T17:46:35.162Z,10.60
2022-12-04T17:51:37.665Z,10.43
2022-12-04T17:56:43.293Z,10.39
2022-12-04T18:01:50.430Z,10.20
2022-12-04T18:06:52.729Z,10.42
2022-12-04T18:11:56.193Z,10.52
2022-12-04T18:16:59.455Z,10.55
2022-12-04T18:22:01.403Z,10.36
2022-12-04T18:27:03.650Z,10.16
2022-12-04T18:32:06.914Z,10.09
2022-12-04T18:37:09.081Z,10.01
2022-12-04T18:42:11.765Z,9.74
2022-12-04T18:47:14.907Z,9.77
2022-12-04T18:52:16.656Z,9.90
2022-12-04T18:57:18.403Z,10.03
2022-12-04T19:02:21.566Z,9.90
2022-12-04T19:07:23.351Z,9.80
2022-12-04T19:12:25.140Z,9.78
2022-12-04T19:17:28.272Z,9.81
2022-12-04T19:22:30.026Z,9.78
2022-12-04T19:27:31.843Z,9.74
2022-12-04T19:32:34.975Z,9.67
2022-12-04T19:37:41.585Z,9.42
2022-12-04T19:42:43.792Z,9.44
2022-12-04T19:47:47.006Z,9.59
2022-12-04T19:52:48.762Z,9.61
2022-12-04T19:57:50.546Z,9.63
2022-12-04T20:02:53.723Z,9.71
2022-12-04T20:07:55.678Z,9.79
2022-12-04T20:12:57.483Z,9.71
2022-12-04T20:18:00.601Z,9.74
2022-12-04T20:23:02.466Z,9.85
2022-12-04T20:28:04.269Z,9.85
2022-12-04T20:33:07.332Z,9.99
2022-12-04T20:38:09.110Z,10.00
2022-12-04T20:43:10.883Z,10.04
2022-12-04T20:48:14.031Z,9.89
2022-12-04T20:53:16.373Z,10.15
2022-12-04T20:58:18.145Z,9.98
2022-12-04T21:03:21.323Z,10.08
2022-12-04T21:08:43.056Z,9.97
2022-12-04T21:14:03.720Z,9.66
2022-12-04T21:19:07.378Z,9.85
2022-12-04T21:24:11.943Z,10.16
2022-12-04T21:29:13.773Z,10.16
2022-12-04T21:34:17.182Z,10.22
2022-12-04T21:39:19.741Z,10.38
2022-12-04T21:44:21.764Z,10.29
2022-12-04T21:49:24.974Z,10.36
2022-12-04T21:54:26.987Z,10.22
2022-12-04T21:59:28.808Z,10.38
2022-12-04T22:04:31.941Z,10.39
2022-12-04T22:09:33.824Z,10.30
2022-12-04T22:14:35.563Z,10.44
2022-12-04T22:19:39.114Z,10.33
2022-12-04T22:24:41.632Z,10.29
2022-12-04T22:30:02.284Z,10.12
2022-12-04T22:35:08.149Z,9.91
2022-12-04T22:40:10.993Z,10.03
2022-12-04T22:45:12.722Z,10.19
2022-12-04T22:50:15.984Z,10.09
2022-12-04T22:55:17.890Z,10.10
2022-12-04T23:00:19.695Z,10.27
2022-12-04T23:05:22.805Z,10.35
2022-12-04T23:10:24.655Z,10.30
2022-12-04T23:15:26.390Z,10.28
2022-12-04T23:20:29.462Z,10.35
2022-12-04T23:25:31.192Z,10.40
2022-12-04T23:30:36.596Z,10.22
2022-12-04T23:35:39.904Z,10.07
2022-12-04T23:40:41.644Z,10.26
2022-12-04T23:45:43.600Z,10.28
2022-12-04T23:50:46.702Z,10.41
2022-12-04T23:55:55.571Z,10.39
